Time;durP1;ratioP1;P1;durP2;ratioP2;P2;SDS_P1;SDS_P2;PMS_P1;PMS_P2;Temp;Humidity;BMP_temperature;BMP_pressure;BME280_temperature;BME280_humidity;BME280_pressure;Samples;Min_cycle;Max_cycle;Signal;HPM_P1;HPM_P2
2022/11/13 00:01:27;;;;;;;13.30;8.18;;;;;;;;;;5049289;28;20247;-62
2022/11/13 00:03:53;;;;;;;10.32;7.53;;;;;;;;;;5033545;28;20207;-62
2022/11/13 00:06:18;;;;;;;11.95;7.97;;;;;;;;;;5036341;28;20663;-62
2022/11/13 00:08:44;;;;;;;13.23;8.30;;;;;;;;;;5033962;28;20219;-62
2022/11/13 00:11:10;;;;;;;10.95;7.82;;;;;;;;;;5046430;28;20208;-62
2022/11/13 00:13:36;;;;;;;11.57;7.63;;;;;;;;;;5053348;28;20216;-62
2022/11/13 00:16:02;;;;;;;10.52;7.53;;;;;;;;;;5040506;28;20237;-63
2022/11/13 00:18:28;;;;;;;12.35;7.90;;;;;;;;;;5034372;28;20295;-62
2022/11/13 00:20:54;;;;;;;10.63;7.32;;;;;;;;;;5034369;28;20622;-62
2022/11/13 00:23:19;;;;;;;12.27;7.53;;;;;;;;;;5032351;28;20235;-62
2022/11/13 00:25:44;;;;;;;12.35;7.40;;;;;;;;;;5033995;28;20212;-62
2022/11/13 00:28:09;;;;;;;11.05;7.70;;;;;;;;;;5033646;28;20212;-62
2022/11/13 00:30:35;;;;;;;12.05;7.63;;;;;;;;;;5033424;28;20208;-62
2022/11/13 00:33:00;;;;;;;10.60;7.75;;;;;;;;;;5034107;28;20281;-62
2022/11/13 00:35:25;;;;;;;10.55;7.35;;;;;;;;;;5033643;28;20227;-62
2022/11/13 00:37:50;;;;;;;12.60;7.90;;;;;;;;;;5033184;28;20212;-62
2022/11/13 00:40:16;;;;;;;11.02;7.38;;;;;;;;;;5032960;28;20216;-62
2022/11/13 00:42:41;;;;;;;10.32;7.47;;;;;;;;;;5033797;28;20210;-62
2022/11/13 00:45:07;;;;;;;10.85;7.45;;;;;;;;;;5032621;28;20214;-62
2022/11/13 00:47:33;;;;;;;11.07;7.13;;;;;;;;;;5033744;28;20208;-62
2022/11/13 00:49:58;;;;;;;12.75;7.28;;;;;;;;;;5033693;28;20215;-62
2022/11/13 00:52:23;;;;;;;12.95;7.72;;;;;;;;;;5032598;28;20534;-62
2022/11/13 00:54:49;;;;;;;13.75;8.15;;;;;;;;;;5033108;28;20234;-62
2022/11/13 00:57:14;;;;;;;10.90;7.32;;;;;;;;;;5033156;28;20216;-62
2022/11/13 00:59:39;;;;;;;13.52;8.65;;;;;;;;;;5032945;28;20216;-62
2022/11/13 01:02:04;;;;;;;10.65;7.38;;;;;;;;;;5033001;28;20250;-62
2022/11/13 01:04:30;;;;;;;11.57;6.43;;;;;;;;;;5033450;28;20207;-62
2022/11/13 01:06:55;;;;;;;11.20;7.53;;;;;;;;;;5032620;28;20713;-62
2022/11/13 01:09:20;;;;;;;12.00;7.35;;;;;;;;;;5032811;28;20212;-62
2022/11/13 01:11:45;;;;;;;13.23;7.82;;;;;;;;;;5033209;28;20216;-62
2022/11/13 01:14:11;;;;;;;8.40;6.65;;;;;;;;;;5031658;28;20289;-62
2022/11/13 01:16:36;;;;;;;10.45;7.13;;;;;;;;;;5033052;28;20242;-62
2022/11/13 01:19:01;;;;;;;12.00;6.88;;;;;;;;;;5032718;28;20216;-63
2022/11/13 01:21:27;;;;;;;9.25;6.65;;;;;;;;;;5032408;28;20210;-62
2022/11/13 01:23:53;;;;;;;10.52;6.53;;;;;;;;;;5033127;28;20218;-62
2022/11/13 01:26:19;;;;;;;11.27;7.05;;;;;;;;;;5031471;28;20231;-62
2022/11/13 01:28:45;;;;;;;12.52;6.70;;;;;;;;;;5033019;28;20311;-62
2022/11/13 01:31:11;;;;;;;10.23;6.20;;;;;;;;;;5032545;28;20637;-62
2022/11/13 01:33:36;;;;;;;11.32;6.85;;;;;;;;;;5031395;28;20233;-62
2022/11/13 01:36:04;;;;;;;15.38;6.45;;;;;;;;;;5032408;28;20645;-62
2022/11/13 01:38:29;;;;;;;11.30;6.53;;;;;;;;;;5032879;28;20211;-62
2022/11/13 01:40:54;;;;;;;17.23;7.75;;;;;;;;;;5031518;28;21001;-62
2022/11/13 01:43:21;;;;;;;9.15;6.25;;;;;;;;;;5031977;28;20219;-62
2022/11/13 01:45:59;;;;;;;10.23;6.38;;;;;;;;;;5032841;28;20581;-62
2022/11/13 01:48:25;;;;;;;9.02;6.15;;;;;;;;;;5013780;28;20214;-62
2022/11/13 01:50:50;;;;;;;14.23;6.93;;;;;;;;;;5015085;28;20304;-62
2022/11/13 01:53:15;;;;;;;11.13;7.00;;;;;;;;;;5032065;28;20269;-62
2022/11/13 01:55:41;;;;;;;13.50;7.53;;;;;;;;;;5014069;28;20330;-62
2022/11/13 01:58:07;;;;;;;13.05;7.05;;;;;;;;;;5031990;28;20576;-62
2022/11/13 02:00:32;;;;;;;12.32;7.85;;;;;;;;;;5014815;28;20212;-62
2022/11/13 02:02:57;;;;;;;11.18;6.97;;;;;;;;;;5014057;28;20275;-62
2022/11/13 02:05:23;;;;;;;13.43;7.20;;;;;;;;;;5032068;28;20287;-62
2022/11/13 02:07:48;;;;;;;13.05;7.32;;;;;;;;;;5032329;28;20574;-62
2022/11/13 02:10:13;;;;;;;10.00;7.28;;;;;;;;;;5031298;28;20235;-62
2022/11/13 02:12:39;;;;;;;13.25;7.53;;;;;;;;;;5032202;28;20714;-62
2022/11/13 02:15:05;;;;;;;12.93;7.53;;;;;;;;;;5031494;28;20224;-63
2022/11/13 02:17:33;;;;;;;14.90;7.45;;;;;;;;;;5030437;28;20216;-62
2022/11/13 02:19:59;;;;;;;11.98;7.03;;;;;;;;;;5031076;28;20207;-62
2022/11/13 02:22:24;;;;;;;12.30;7.50;;;;;;;;;;5031395;28;20216;-62
2022/11/13 02:24:50;;;;;;;12.18;6.32;;;;;;;;;;5031376;28;20212;-63
2022/11/13 02:27:28;;;;;;;13.43;6.72;;;;;;;;;;5031512;28;20243;-63
2022/11/13 02:29:53;;;;;;;10.75;6.07;;;;;;;;;;5031505;28;20675;-62
2022/11/13 02:32:18;;;;;;;11.23;7.10;;;;;;;;;;5031717;28;20215;-62
2022/11/13 02:34:44;;;;;;;10.55;5.90;;;;;;;;;;5032253;28;20220;-62
2022/11/13 02:37:09;;;;;;;10.27;5.97;;;;;;;;;;5030905;28;20223;-62
2022/11/13 02:39:34;;;;;;;10.18;6.20;;;;;;;;;;5032119;28;20289;-62
2022/11/13 02:41:59;;;;;;;9.65;5.53;;;;;;;;;;5031752;28;20219;-62
2022/11/13 02:44:25;;;;;;;10.40;5.72;;;;;;;;;;5031007;28;20208;-62
2022/11/13 02:46:50;;;;;;;9.52;6.07;;;;;;;;;;5035900;28;20216;-62
2022/11/13 02:49:15;;;;;;;9.55;5.50;;;;;;;;;;5035527;28;20219;-62
2022/11/13 02:51:40;;;;;;;8.82;5.80;;;;;;;;;;5035031;28;20562;-62
2022/11/13 02:54:06;;;;;;;9.80;5.60;;;;;;;;;;5035542;28;20222;-62
2022/11/13 02:56:31;;;;;;;8.77;5.25;;;;;;;;;;5035757;28;20685;-62
2022/11/13 02:58:56;;;;;;;11.97;5.60;;;;;;;;;;5034815;28;20219;-62
2022/11/13 03:01:22;;;;;;;12.10;5.53;;;;;;;;;;5035098;28;20231;-62
2022/11/13 03:03:47;;;;;;;8.70;5.22;;;;;;;;;;5035718;28;20211;-62
2022/11/13 03:06:12;;;;;;;7.70;5.15;;;;;;;;;;5034439;28;20212;-62
2022/11/13 03:08:37;;;;;;;9.82;5.55;;;;;;;;;;5035708;28;20592;-62
2022/11/13 03:11:08;;;;;;;10.07;5.45;;;;;;;;;;5035079;28;20216;-62
2022/11/13 03:13:34;;;;;;;8.77;5.22;;;;;;;;;;5034192;28;20230;-62
2022/11/13 03:16:05;;;;;;;8.60;4.97;;;;;;;;;;5035264;28;20251;-62
2022/11/13 03:18:30;;;;;;;9.15;5.13;;;;;;;;;;5034976;28;20302;-62
2022/11/13 03:20:55;;;;;;;10.45;5.60;;;;;;;;;;5034619;28;20661;-62
2022/11/13 03:23:20;;;;;;;9.52;5.85;;;;;;;;;;5035050;28;20261;-62
2022/11/13 03:25:46;;;;;;;8.60;5.38;;;;;;;;;;5034484;28;20208;-62
2022/11/13 03:28:11;;;;;;;8.52;5.43;;;;;;;;;;5034563;28;20284;-62
2022/11/13 03:30:36;;;;;;;11.57;5.80;;;;;;;;;;5035315;28;20220;-62
2022/11/13 03:33:01;;;;;;;13.45;6.13;;;;;;;;;;5033845;28;20212;-62
2022/11/13 03:35:28;;;;;;;9.93;6.55;;;;;;;;;;5034944;28;20698;-62
2022/11/13 03:37:53;;;;;;;10.68;6.32;;;;;;;;;;5035228;28;20322;-62
2022/11/13 03:40:18;;;;;;;11.43;6.18;;;;;;;;;;5019478;28;20267;-62
2022/11/13 03:42:43;;;;;;;10.07;6.40;;;;;;;;;;5024179;28;20683;-62
2022/11/13 03:45:09;;;;;;;9.77;6.40;;;;;;;;;;5024515;28;20277;-62
2022/11/13 03:47:34;;;;;;;9.10;6.40;;;;;;;;;;5023958;28;20694;-62
2022/11/13 03:49:59;;;;;;;9.63;6.80;;;;;;;;;;5024841;28;20216;-62
2022/11/13 03:52:24;;;;;;;8.88;6.90;;;;;;;;;;5020254;28;20215;-62
2022/11/13 03:54:50;;;;;;;10.32;6.95;;;;;;;;;;5016327;28;20680;-62
2022/11/13 03:57:15;;;;;;;11.35;7.05;;;;;;;;;;5015178;28;20247;-62
2022/11/13 03:59:40;;;;;;;8.30;6.05;;;;;;;;;;5021340;28;20699;-62
2022/11/13 04:02:05;;;;;;;8.32;6.07;;;;;;;;;;5023301;28;20238;-62
2022/11/13 04:04:31;;;;;;;10.37;6.73;;;;;;;;;;5024660;28;20215;-62
2022/11/13 04:06:56;;;;;;;8.57;6.78;;;;;;;;;;5024782;28;20611;-62
2022/11/13 04:09:21;;;;;;;10.25;7.35;;;;;;;;;;5023337;28;20243;-62
2022/11/13 04:11:46;;;;;;;10.10;7.03;;;;;;;;;;5025188;28;20616;-62
2022/11/13 04:14:12;;;;;;;10.20;7.82;;;;;;;;;;5022146;28;20294;-62
2022/11/13 04:16:37;;;;;;;11.55;7.70;;;;;;;;;;5016520;28;20212;-62
2022/11/13 04:19:02;;;;;;;11.15;7.90;;;;;;;;;;5015923;28;20220;-62
2022/11/13 04:21:27;;;;;;;11.52;8.02;;;;;;;;;;5018111;28;20196;-62
2022/11/13 04:23:53;;;;;;;11.98;7.47;;;;;;;;;;5023613;28;20301;-62
2022/11/13 04:26:18;;;;;;;11.70;7.30;;;;;;;;;;5024309;28;20216;-62
2022/11/13 04:28:43;;;;;;;11.48;8.15;;;;;;;;;;5024415;28;20777;-62
2022/11/13 04:31:08;;;;;;;11.00;7.40;;;;;;;;;;5023394;28;20219;-62
2022/11/13 04:33:34;;;;;;;12.93;8.25;;;;;;;;;;5024271;28;20207;-62
2022/11/13 04:36:00;;;;;;;12.65;8.23;;;;;;;;;;5024042;28;20231;-62
2022/11/13 04:38:25;;;;;;;11.60;7.95;;;;;;;;;;5016379;28;20638;-62
2022/11/13 04:42:47;;;;;;;14.27;8.25;;;;;;;;;;5015512;28;20254;-62
2022/11/13 04:43:35;;;;;;;11.15;7.40;;;;;;;;;;5015008;28;20228;-62
2022/11/13 04:46:00;;;;;;;9.75;7.15;;;;;;;;;;5023210;28;20218;-62
2022/11/13 04:48:26;;;;;;;10.50;7.32;;;;;;;;;;5023647;28;20747;-62
2022/11/13 04:50:51;;;;;;;11.88;7.25;;;;;;;;;;5023399;28;20212;-62
2022/11/13 04:53:16;;;;;;;10.88;6.93;;;;;;;;;;5023506;28;20282;-62
2022/11/13 04:55:41;;;;;;;10.75;7.35;;;;;;;;;;5023766;28;20238;-62
2022/11/13 04:58:07;;;;;;;10.90;7.18;;;;;;;;;;5022963;28;20228;-62
2022/11/13 05:00:32;;;;;;;11.18;6.60;;;;;;;;;;5018161;28;20208;-62
2022/11/13 05:02:57;;;;;;;10.87;6.50;;;;;;;;;;5015571;28;20228;-62
2022/11/13 05:05:22;;;;;;;10.27;6.85;;;;;;;;;;5014197;28;20208;-62
2022/11/13 05:07:48;;;;;;;8.05;6.43;;;;;;;;;;5021305;28;20215;-62
2022/11/13 05:10:13;;;;;;;10.25;6.40;;;;;;;;;;5023048;28;20558;-62
2022/11/13 05:12:38;;;;;;;11.98;6.72;;;;;;;;;;5022969;28;20228;-62
2022/11/13 05:15:04;;;;;;;11.48;6.57;;;;;;;;;;5022719;28;20635;-62
2022/11/13 05:17:29;;;;;;;13.03;6.47;;;;;;;;;;5023181;28;20211;-62
2022/11/13 05:19:54;;;;;;;11.85;7.03;;;;;;;;;;5022868;28;20764;-62
2022/11/13 05:22:20;;;;;;;12.57;7.10;;;;;;;;;;5019547;28;20246;-62
2022/11/13 05:24:45;;;;;;;10.93;6.80;;;;;;;;;;5015522;28;20675;-62
2022/11/13 05:27:10;;;;;;;9.53;6.40;;;;;;;;;;5013830;28;20214;-62
2022/11/13 05:29:35;;;;;;;10.67;7.23;;;;;;;;;;5018355;28;20238;-62
2022/11/13 05:32:01;;;;;;;14.20;7.28;;;;;;;;;;5022360;28;20219;-62
2022/11/13 05:34:26;;;;;;;10.73;6.93;;;;;;;;;;5022753;28;20236;-62
2022/11/13 05:36:51;;;;;;;14.10;7.53;;;;;;;;;;5023123;28;20624;-62
2022/11/13 05:39:16;;;;;;;10.13;6.97;;;;;;;;;;5022434;28;20204;-62
2022/11/13 05:41:42;;;;;;;10.35;7.30;;;;;;;;;;5022541;28;20302;-61
2022/11/13 05:44:07;;;;;;;10.93;7.30;;;;;;;;;;5021544;28;20848;-62
2022/11/13 05:46:32;;;;;;;10.23;7.10;;;;;;;;;;5014316;28;20557;-62
2022/11/13 05:48:58;;;;;;;11.60;8.00;;;;;;;;;;5014621;28;20222;-62
2022/11/13 05:51:24;;;;;;;11.20;7.60;;;;;;;;;;5014909;28;20239;-62
2022/11/13 05:53:50;;;;;;;11.63;7.37;;;;;;;;;;5021854;28;20220;-62
2022/11/13 05:56:16;;;;;;;10.80;7.60;;;;;;;;;;5022325;28;20591;-62
2022/11/13 05:58:42;;;;;;;9.73;7.53;;;;;;;;;;5022795;28;20683;-62
2022/11/13 06:01:07;;;;;;;10.73;7.20;;;;;;;;;;5021810;28;20242;-62
2022/11/13 06:03:32;;;;;;;9.57;7.45;;;;;;;;;;5022703;28;20371;-62
2022/11/13 06:05:58;;;;;;;11.87;7.50;;;;;;;;;;5023171;28;20222;-62
2022/11/13 06:08:23;;;;;;;11.93;7.30;;;;;;;;;;5015603;28;20204;-62
2022/11/13 06:10:48;;;;;;;10.75;7.93;;;;;;;;;;5014501;28;20224;-62
2022/11/13 06:13:13;;;;;;;11.00;7.70;;;;;;;;;;5013780;28;20258;-62
2022/11/13 06:15:39;;;;;;;10.90;7.47;;;;;;;;;;5019543;28;20239;-62
2022/11/13 06:18:04;;;;;;;11.68;7.47;;;;;;;;;;5022315;28;20667;-62
2022/11/13 06:20:29;;;;;;;11.27;7.13;;;;;;;;;;5026677;28;20790;-62
2022/11/13 06:22:55;;;;;;;9.83;7.23;;;;;;;;;;5028585;28;20226;-62
2022/11/13 06:25:20;;;;;;;10.03;7.23;;;;;;;;;;5010292;28;20722;-62
2022/11/13 06:27:45;;;;;;;11.53;7.27;;;;;;;;;;5029396;28;20219;-62
2022/11/13 06:30:11;;;;;;;12.90;7.07;;;;;;;;;;5024778;28;20307;-62
2022/11/13 06:32:36;;;;;;;12.60;6.93;;;;;;;;;;5021337;28;20216;-62
2022/11/13 06:35:01;;;;;;;8.95;6.18;;;;;;;;;;5020054;28;20223;-62
2022/11/13 06:37:27;;;;;;;9.10;6.35;;;;;;;;;;5022940;28;20204;-62
2022/11/13 06:39:52;;;;;;;10.35;6.88;;;;;;;;;;5029041;28;20243;-62
2022/11/13 06:42:17;;;;;;;10.63;6.73;;;;;;;;;;5028737;28;20212;-62
2022/11/13 06:44:42;;;;;;;9.00;6.50;;;;;;;;;;5028384;28;20215;-61
2022/11/13 06:47:08;;;;;;;9.48;6.25;;;;;;;;;;5027904;28;20216;-62
2022/11/13 06:49:33;;;;;;;12.83;6.67;;;;;;;;;;5028658;28;20600;-62
2022/11/13 06:51:58;;;;;;;8.88;6.20;;;;;;;;;;5031160;28;20215;-61
2022/11/13 06:54:24;;;;;;;11.85;6.60;;;;;;;;;;5035100;28;20568;-61
2022/11/13 06:56:49;;;;;;;9.10;6.20;;;;;;;;;;5037678;28;20218;-61
2022/11/13 06:59:14;;;;;;;9.37;5.80;;;;;;;;;;5038121;28;20216;-63
2022/11/13 07:01:39;;;;;;;9.23;6.60;;;;;;;;;;5037251;28;20796;-61
2022/11/13 07:04:05;;;;;;;8.63;6.00;;;;;;;;;;5037222;28;20281;-65
2022/11/13 07:06:32;;;;;;;9.55;5.93;;;;;;;;;;5038065;28;20227;-62
2022/11/13 07:08:57;;;;;;;8.47;6.13;;;;;;;;;;5019402;28;20294;-63
2022/11/13 07:11:22;;;;;;;9.87;6.20;;;;;;;;;;5037143;28;20203;-64
2022/11/13 07:13:48;;;;;;;9.32;6.75;;;;;;;;;;5039241;28;20210;-64
2022/11/13 07:16:13;;;;;;;10.27;6.13;;;;;;;;;;5036456;28;20246;-64
2022/11/13 07:18:38;;;;;;;11.53;6.30;;;;;;;;;;5036972;28;20226;-64
2022/11/13 07:21:05;;;;;;;10.90;6.10;;;;;;;;;;5037608;28;20277;-64
2022/11/13 07:23:30;;;;;;;8.90;6.00;;;;;;;;;;5038247;28;20240;-64
2022/11/13 07:25:55;;;;;;;9.20;6.37;;;;;;;;;;5037596;28;20632;-64
2022/11/13 07:28:20;;;;;;;10.52;6.68;;;;;;;;;;5037806;28;20699;-64
2022/11/13 07:30:46;;;;;;;8.43;6.10;;;;;;;;;;5037099;28;20635;-64
2022/11/13 07:33:11;;;;;;;11.60;6.78;;;;;;;;;;5032774;28;20216;-64
2022/11/13 07:35:36;;;;;;;9.47;7.00;;;;;;;;;;5034233;28;20588;-63
2022/11/13 07:38:01;;;;;;;9.53;6.67;;;;;;;;;;5033860;28;20264;-62
2022/11/13 07:40:27;;;;;;;10.97;7.43;;;;;;;;;;5032964;28;20226;-62
2022/11/13 07:42:56;;;;;;;12.77;7.60;;;;;;;;;;5034025;28;20215;-62
2022/11/13 07:45:22;;;;;;;12.15;7.28;;;;;;;;;;5034168;28;20235;-62
2022/11/13 07:47:47;;;;;;;13.25;8.43;;;;;;;;;;5033700;28;20300;-63
2022/11/13 07:50:12;;;;;;;22.77;16.17;;;;;;;;;;5034185;28;20208;-63
2022/11/13 07:52:37;;;;;;;49.20;44.60;;;;;;;;;;5030832;28;20222;-63
2022/11/13 07:55:03;;;;;;;47.50;43.00;;;;;;;;;;5014094;28;20244;-64
2022/11/13 07:57:28;;;;;;;21.77;19.58;;;;;;;;;;5033901;28;20219;-63
2022/11/13 07:59:53;;;;;;;48.27;43.77;;;;;;;;;;5033431;28;20204;-64
2022/11/13 08:02:19;;;;;;;29.58;26.88;;;;;;;;;;5032136;28;20215;-63
2022/11/13 08:04:44;;;;;;;11.95;9.75;;;;;;;;;;5033664;28;20219;-63
2022/11/13 08:07:10;;;;;;;16.13;13.77;;;;;;;;;;5032667;28;20208;-63
2022/11/13 08:09:35;;;;;;;13.52;9.05;;;;;;;;;;5033443;28;20298;-63
2022/11/13 08:12:00;;;;;;;11.70;8.20;;;;;;;;;;5033562;28;20212;-63
2022/11/13 08:14:25;;;;;;;11.50;8.93;;;;;;;;;;5032330;28;20231;-64
2022/11/13 08:16:51;;;;;;;15.70;8.93;;;;;;;;;;5033374;28;20211;-63
2022/11/13 08:19:16;;;;;;;12.75;8.95;;;;;;;;;;5033228;28;20219;-63
2022/11/13 08:21:41;;;;;;;10.65;7.90;;;;;;;;;;5033323;28;20280;-62
2022/11/13 08:24:08;;;;;;;12.60;9.00;;;;;;;;;;5033392;28;20424;-62
2022/11/13 08:26:35;;;;;;;11.00;7.40;;;;;;;;;;5029162;28;20211;-64
2022/11/13 08:29:01;;;;;;;10.85;7.90;;;;;;;;;;5035395;28;20211;-64
2022/11/13 08:31:26;;;;;;;12.35;8.93;;;;;;;;;;5045318;28;20572;-64
2022/11/13 08:33:51;;;;;;;10.85;8.60;;;;;;;;;;5033526;28;20218;-64
2022/11/13 08:36:16;;;;;;;11.73;8.23;;;;;;;;;;5025283;28;20239;-63
2022/11/13 08:38:42;;;;;;;11.43;8.48;;;;;;;;;;5033809;28;20216;-64
2022/11/13 08:41:07;;;;;;;12.38;8.50;;;;;;;;;;5033412;28;20705;-64
2022/11/13 08:43:32;;;;;;;11.63;8.97;;;;;;;;;;5032276;28;20216;-64
2022/11/13 08:45:58;;;;;;;12.75;8.68;;;;;;;;;;5029533;28;20240;-64
2022/11/13 08:48:23;;;;;;;12.35;9.05;;;;;;;;;;5027656;28;20289;-64
2022/11/13 08:50:50;;;;;;;10.90;8.38;;;;;;;;;;5032579;28;20231;-64
2022/11/13 08:53:15;;;;;;;11.23;8.97;;;;;;;;;;5032938;28;20223;-65
2022/11/13 08:55:40;;;;;;;11.47;8.70;;;;;;;;;;5033162;28;20524;-63
2022/11/13 08:58:06;;;;;;;11.80;9.05;;;;;;;;;;5028553;28;20216;-63
2022/11/13 09:00:32;;;;;;;13.70;8.32;;;;;;;;;;5033016;28;20235;-63
2022/11/13 09:02:58;;;;;;;11.68;8.18;;;;;;;;;;5030478;28;20706;-63
2022/11/13 09:05:23;;;;;;;11.57;8.88;;;;;;;;;;5029334;28;20216;-63
2022/11/13 09:07:48;;;;;;;11.63;8.70;;;;;;;;;;5033333;28;20220;-63
2022/11/13 09:10:14;;;;;;;11.65;9.23;;;;;;;;;;5032692;28;20216;-63
2022/11/13 09:12:40;;;;;;;13.30;9.02;;;;;;;;;;5032157;28;20694;-63
2022/11/13 09:15:05;;;;;;;11.98;8.82;;;;;;;;;;5032444;28;20224;-63
2022/11/13 09:17:30;;;;;;;11.90;9.15;;;;;;;;;;5032117;28;20215;-63
2022/11/13 09:19:56;;;;;;;12.50;9.27;;;;;;;;;;5032890;28;20223;-63
2022/11/13 09:22:21;;;;;;;13.23;8.77;;;;;;;;;;5032362;28;20219;-63
2022/11/13 09:24:46;;;;;;;13.25;9.25;;;;;;;;;;5032231;28;20687;-63
2022/11/13 09:27:11;;;;;;;11.35;8.55;;;;;;;;;;5031877;28;20216;-63
2022/11/13 09:29:37;;;;;;;10.65;8.63;;;;;;;;;;5032709;28;20227;-63
2022/11/13 09:32:02;;;;;;;11.77;8.68;;;;;;;;;;5031320;28;20215;-63
2022/11/13 09:34:27;;;;;;;10.52;8.13;;;;;;;;;;5030850;28;20618;-63
2022/11/13 09:36:52;;;;;;;12.02;8.98;;;;;;;;;;5030425;28;20245;-63
2022/11/13 09:39:18;;;;;;;10.68;7.72;;;;;;;;;;5029413;28;20200;-63
2022/11/13 09:41:45;;;;;;;10.27;7.95;;;;;;;;;;5030370;28;20617;-63
2022/11/13 09:44:13;;;;;;;10.65;7.50;;;;;;;;;;5030005;28;20266;-63
2022/11/13 09:46:46;;;;;;;10.68;8.13;;;;;;;;;;5024825;28;20356;-63
2022/11/13 09:49:13;;;;;;;11.02;7.65;;;;;;;;;;5030173;28;20211;-63
2022/11/13 09:51:39;;;;;;;10.75;7.55;;;;;;;;;;5030313;28;20250;-63
2022/11/13 09:54:05;;;;;;;10.00;7.53;;;;;;;;;;5028620;28;20228;-63
2022/11/13 09:56:32;;;;;;;10.32;7.47;;;;;;;;;;5029680;28;20235;-63
2022/11/13 09:59:06;;;;;;;9.18;7.38;;;;;;;;;;5012480;28;20637;-63
2022/11/13 10:01:36;;;;;;;11.23;7.03;;;;;;;;;;5029899;28;20310;-63
2022/11/13 10:04:03;;;;;;;9.85;6.32;;;;;;;;;;5014244;28;20294;-63
2022/11/13 10:06:45;;;;;;;8.40;6.40;;;;;;;;;;5014554;28;20212;-64
2022/11/13 10:09:14;;;;;;;10.25;6.70;;;;;;;;;;5014235;28;20667;-64
2022/11/13 10:11:42;;;;;;;10.55;7.00;;;;;;;;;;5031632;28;20219;-63
2022/11/13 10:14:18;;;;;;;9.40;6.88;;;;;;;;;;5030951;28;20667;-63
2022/11/13 10:16:46;;;;;;;8.95;6.43;;;;;;;;;;5014514;28;20223;-63
2022/11/13 10:19:23;;;;;;;10.30;7.50;;;;;;;;;;5013594;28;20277;-63
2022/11/13 10:21:51;;;;;;;9.57;7.05;;;;;;;;;;5012011;28;20322;-64
2022/11/13 10:24:24;;;;;;;8.50;6.18;;;;;;;;;;5027106;28;20208;-64
2022/11/13 10:26:49;;;;;;;10.07;7.60;;;;;;;;;;5031361;28;20230;-64
2022/11/13 10:29:15;;;;;;;9.98;7.20;;;;;;;;;;5030844;28;20679;-63
2022/11/13 10:31:41;;;;;;;9.93;7.80;;;;;;;;;;5023019;28;20232;-64
2022/11/13 10:34:06;;;;;;;8.88;6.93;;;;;;;;;;5011441;28;20216;-63
2022/11/13 10:36:35;;;;;;;9.77;7.55;;;;;;;;;;5017428;28;20226;-63
2022/11/13 10:39:02;;;;;;;9.57;7.57;;;;;;;;;;5016743;28;20537;-64
2022/11/13 10:41:28;;;;;;;8.85;7.15;;;;;;;;;;5006832;28;20297;-64
2022/11/13 10:43:53;;;;;;;9.27;6.85;;;;;;;;;;5025479;28;20243;-64
2022/11/13 10:46:19;;;;;;;9.15;6.93;;;;;;;;;;5025174;28;20200;-64
2022/11/13 10:48:45;;;;;;;9.85;6.88;;;;;;;;;;5025947;28;20641;-64
2022/11/13 10:51:22;;;;;;;12.38;6.90;;;;;;;;;;5006880;28;20710;-63
2022/11/13 10:53:47;;;;;;;10.00;7.50;;;;;;;;;;5025697;28;20947;-64
2022/11/13 10:56:28;;;;;;;10.73;6.95;;;;;;;;;;4997648;28;20227;-64
2022/11/13 10:59:00;;;;;;;8.32;6.72;;;;;;;;;;5018095;28;20251;-64
2022/11/13 11:01:25;;;;;;;9.20;6.70;;;;;;;;;;5018423;28;20839;-64
2022/11/13 11:03:51;;;;;;;8.60;6.90;;;;;;;;;;5023496;28;20923;-64
2022/11/13 11:06:16;;;;;;;7.78;6.32;;;;;;;;;;5026790;28;20220;-64
2022/11/13 11:08:41;;;;;;;7.35;5.75;;;;;;;;;;5009506;28;20212;-64
2022/11/13 11:14:03;;;;;;;6.60;5.20;;;;;;;;;;5012816;28;20222;-64
2022/11/13 11:16:28;;;;;;;7.07;5.35;;;;;;;;;;5026814;28;20764;-64
2022/11/13 11:18:57;;;;;;;7.75;5.10;;;;;;;;;;5022102;28;20261;-64
2022/11/13 11:21:25;;;;;;;7.38;4.90;;;;;;;;;;5001674;28;20208;-64
2022/11/13 11:23:53;;;;;;;6.60;4.95;;;;;;;;;;5002548;28;20215;-64
2022/11/13 11:26:37;;;;;;;6.10;4.50;;;;;;;;;;5023075;28;20219;-64
2022/11/13 11:29:06;;;;;;;8.45;4.82;;;;;;;;;;5009283;28;20254;-64
2022/11/13 11:31:34;;;;;;;7.00;5.05;;;;;;;;;;5027636;28;20203;-64
2022/11/13 11:34:11;;;;;;;8.65;4.88;;;;;;;;;;5015499;28;20212;-64
2022/11/13 11:36:41;;;;;;;8.30;4.60;;;;;;;;;;5031076;28;20311;-64
2022/11/13 11:39:18;;;;;;;7.18;4.70;;;;;;;;;;5031283;28;20202;-64
2022/11/13 11:41:45;;;;;;;7.75;5.10;;;;;;;;;;5021512;28;20684;-64
2022/11/13 11:44:13;;;;;;;6.50;5.00;;;;;;;;;;5011387;28;20251;-64
2022/11/13 11:46:38;;;;;;;7.63;5.05;;;;;;;;;;5020394;28;20239;-64
2022/11/13 11:49:03;;;;;;;7.88;5.15;;;;;;;;;;5032334;28;20671;-64
2022/11/13 11:51:30;;;;;;;7.95;5.43;;;;;;;;;;5031011;28;20220;-64
2022/11/13 11:54:13;;;;;;;6.53;5.03;;;;;;;;;;5031308;28;20246;-63
2022/11/13 11:56:39;;;;;;;12.77;5.97;;;;;;;;;;5011801;28;20220;-63
2022/11/13 11:59:07;;;;;;;7.00;5.20;;;;;;;;;;5012363;28;20271;-64
2022/11/13 12:01:38;;;;;;;7.60;4.95;;;;;;;;;;5012011;28;20280;-63
2022/11/13 12:04:03;;;;;;;6.55;5.07;;;;;;;;;;5024000;28;20621;-64
2022/11/13 12:06:42;;;;;;;7.28;5.38;;;;;;;;;;5031696;28;20234;-64
2022/11/13 12:09:12;;;;;;;6.78;5.30;;;;;;;;;;5030661;28;20223;-64
2022/11/13 12:11:39;;;;;;;6.45;5.20;;;;;;;;;;5013917;28;20436;-64
2022/11/13 12:14:08;;;;;;;8.13;5.68;;;;;;;;;;5010258;28;20246;-64
2022/11/13 12:16:39;;;;;;;8.57;5.95;;;;;;;;;;5029767;28;20231;-64
2022/11/13 12:19:09;;;;;;;7.38;5.10;;;;;;;;;;5010307;28;20204;-64
2022/11/13 12:21:51;;;;;;;9.52;5.72;;;;;;;;;;5013012;28;20570;-64
2022/11/13 12:24:22;;;;;;;9.38;5.50;;;;;;;;;;5031396;28;20232;-64
2022/11/13 12:26:47;;;;;;;7.15;5.05;;;;;;;;;;5031553;28;20679;-64
2022/11/13 12:29:16;;;;;;;7.53;5.35;;;;;;;;;;5030940;28;20243;-64
2022/11/13 12:32:05;;;;;;;6.47;4.20;;;;;;;;;;4994988;28;20296;-64
2022/11/13 12:34:35;;;;;;;6.05;4.40;;;;;;;;;;5028497;28;20219;-64
2022/11/13 12:37:00;;;;;;;5.93;4.05;;;;;;;;;;5026025;28;20220;-64
2022/11/13 12:39:25;;;;;;;6.82;4.68;;;;;;;;;;5026532;28;20266;-64
2022/11/13 12:41:57;;;;;;;7.82;4.32;;;;;;;;;;5024345;28;20220;-64
2022/11/13 12:44:23;;;;;;;5.63;3.67;;;;;;;;;;5035063;28;20212;-64
2022/11/13 12:46:50;;;;;;;5.97;3.40;;;;;;;;;;5034906;28;20227;-64
2022/11/13 12:49:24;;;;;;;5.18;3.33;;;;;;;;;;4996656;28;20223;-64
2022/11/13 12:51:58;;;;;;;5.60;3.75;;;;;;;;;;5031634;28;20229;-64
2022/11/13 12:54:24;;;;;;;4.78;3.55;;;;;;;;;;5030630;28;20293;-64
2022/11/13 12:56:49;;;;;;;5.50;3.30;;;;;;;;;;5031994;28;20246;-64
2022/11/13 12:59:15;;;;;;;5.25;3.38;;;;;;;;;;5033250;28;20346;-63
2022/11/13 13:01:47;;;;;;;5.50;3.22;;;;;;;;;;5032570;28;20231;-63
2022/11/13 13:04:24;;;;;;;4.88;3.17;;;;;;;;;;5032198;28;20226;-63
2022/11/13 13:07:07;;;;;;;5.22;3.20;;;;;;;;;;5032244;28;20207;-62
2022/11/13 13:09:38;;;;;;;5.05;2.90;;;;;;;;;;5030770;28;20207;-63
2022/11/13 13:12:20;;;;;;;5.35;3.30;;;;;;;;;;5032524;28;20589;-63
2022/11/13 13:14:53;;;;;;;4.70;3.13;;;;;;;;;;5032092;28;20262;-63
2022/11/13 13:17:19;;;;;;;5.10;3.17;;;;;;;;;;5011561;28;20258;-63
2022/11/13 13:19:45;;;;;;;4.63;3.30;;;;;;;;;;5033209;28;20702;-63
2022/11/13 13:22:22;;;;;;;6.10;3.20;;;;;;;;;;5032174;28;20219;-63
2022/11/13 13:24:47;;;;;;;4.50;3.03;;;;;;;;;;5011281;28;20212;-63
2022/11/13 13:27:19;;;;;;;5.43;3.40;;;;;;;;;;5011437;28;20540;-63
2022/11/13 13:29:45;;;;;;;4.93;3.38;;;;;;;;;;5011419;28;20225;-63
2022/11/13 13:32:13;;;;;;;6.50;3.17;;;;;;;;;;5027362;28;20218;-63
2022/11/13 13:34:42;;;;;;;4.63;3.20;;;;;;;;;;5032828;28;20701;-63
2022/11/13 13:37:08;;;;;;;5.10;3.45;;;;;;;;;;5032395;28;20572;-64
2022/11/13 13:39:37;;;;;;;5.53;3.15;;;;;;;;;;5031613;28;20270;-63
2022/11/13 13:42:02;;;;;;;4.57;3.30;;;;;;;;;;5042001;28;20220;-63
2022/11/13 13:44:32;;;;;;;6.78;4.50;;;;;;;;;;5040004;28;20215;-63
2022/11/13 13:46:57;;;;;;;6.43;4.30;;;;;;;;;;5040950;28;20211;-63
2022/11/13 13:49:23;;;;;;;7.32;4.75;;;;;;;;;;5031257;28;20278;-63
2022/11/13 13:51:49;;;;;;;5.22;3.95;;;;;;;;;;5029616;28;20294;-63
2022/11/13 13:54:17;;;;;;;6.13;4.20;;;;;;;;;;5049520;28;20238;-63
2022/11/13 13:56:42;;;;;;;5.15;3.92;;;;;;;;;;5050163;28;20230;-63
2022/11/13 13:59:21;;;;;;;6.10;3.95;;;;;;;;;;5049259;28;20215;-64
2022/11/13 14:01:52;;;;;;;5.80;4.07;;;;;;;;;;5042788;28;20236;-63
2022/11/13 14:04:18;;;;;;;5.15;3.72;;;;;;;;;;5049817;28;20578;-63
2022/11/13 14:06:48;;;;;;;4.97;3.45;;;;;;;;;;5049547;28;20225;-63
2022/11/13 14:09:15;;;;;;;5.95;3.50;;;;;;;;;;5049344;28;20678;-64
2022/11/13 14:11:41;;;;;;;5.70;3.05;;;;;;;;;;5038442;28;20428;-65
2022/11/13 14:14:07;;;;;;;7.75;3.25;;;;;;;;;;5024188;28;20214;-65
2022/11/13 14:16:33;;;;;;;4.75;2.58;;;;;;;;;;5030282;28;20215;-65
2022/11/13 14:19:02;;;;;;;6.57;2.80;;;;;;;;;;5030256;28;20238;-65
2022/11/13 14:21:27;;;;;;;13.45;8.38;;;;;;;;;;5028966;28;20261;-65
2022/11/13 14:23:53;;;;;;;7.22;4.65;;;;;;;;;;5029952;28;20211;-65
2022/11/13 14:26:18;;;;;;;7.47;2.97;;;;;;;;;;5029472;28;20304;-65
2022/11/13 14:28:49;;;;;;;3.65;2.40;;;;;;;;;;5029193;28;20216;-65
2022/11/13 14:31:14;;;;;;;5.00;2.30;;;;;;;;;;5028418;28;20222;-65
2022/11/13 14:33:40;;;;;;;3.03;2.03;;;;;;;;;;5028875;28;20220;-65
2022/11/13 14:36:06;;;;;;;3.90;2.25;;;;;;;;;;5028724;28;20697;-66